Time;durP1;ratioP1;P1;durP2;ratioP2;P2;SDS_P1;SDS_P2;PMS_P1;PMS_P2;Temp;Humidity;BMP_temperature;BMP_pressure;BME280_temperature;BME280_humidity;BME280_pressure;Samples;Min_cycle;Max_cycle;Signal;HPM_P1;HPM_P2
2022/03/23 00:00:38;;;;;;;200.77;65.93;;;;;;;4.50;73.83;102405.06;5023281;28;20036;-69
2022/03/23 00:03:03;;;;;;;197.32;62.42;;;;;;;4.47;73.88;102408.34;5041731;28;20075;-68
2022/03/23 00:05:29;;;;;;;209.48;62.45;;;;;;;4.41;74.13;102396.88;5024230;28;20029;-69
2022/03/23 00:07:56;;;;;;;187.98;59.28;;;;;;;4.38;74.08;102400.19;5042613;28;20026;-69
2022/03/23 00:10:21;;;;;;;195.40;62.30;;;;;;;4.35;74.26;102400.03;5042770;28;20022;-69
2022/03/23 00:12:47;;;;;;;468.77;83.75;;;;;;;4.30;74.50;102396.34;5024656;28;20104;-69
2022/03/23 00:15:12;;;;;;;179.98;65.00;;;;;;;4.22;74.53;102399.41;5045468;28;20366;-69
2022/03/23 00:17:39;;;;;;;251.50;71.25;;;;;;;4.26;74.42;102400.47;5045967;28;20384;-69
2022/03/23 00:20:05;;;;;;;229.48;68.28;;;;;;;4.22;74.53;102395.94;5046070;28;20055;-69
2022/03/23 00:22:31;;;;;;;206.20;68.53;;;;;;;4.27;74.83;102402.22;5046079;28;20052;-69
2022/03/23 00:24:56;;;;;;;459.90;88.43;;;;;;;4.34;74.39;102395.69;5046082;28;20029;-69
2022/03/23 00:27:22;;;;;;;495.80;92.57;;;;;;;4.29;74.44;102392.91;5045888;28;20242;-69
2022/03/23 00:29:48;;;;;;;244.45;63.63;;;;;;;4.23;74.43;102392.59;5045945;28;20394;-71
2022/03/23 00:32:14;;;;;;;272.30;69.75;;;;;;;4.11;74.90;102392.84;5045720;28;20040;-69
2022/03/23 00:34:39;;;;;;;205.30;68.78;;;;;;;4.06;75.31;102395.19;5046132;28;20029;-69
2022/03/23 00:37:05;;;;;;;238.65;66.63;;;;;;;4.03;75.82;102397.59;5045779;28;20272;-69
2022/03/23 00:39:31;;;;;;;243.48;67.47;;;;;;;4.04;75.73;102388.22;5045511;28;20044;-69
2022/03/23 00:41:56;;;;;;;347.95;75.47;;;;;;;4.14;75.62;102395.56;5045740;28;20033;-69
2022/03/23 00:44:22;;;;;;;232.95;69.28;;;;;;;4.16;75.31;102391.41;5045653;28;20021;-69
2022/03/23 00:46:48;;;;;;;210.60;67.75;;;;;;;4.20;75.25;102395.03;5045525;28;20049;-69
2022/03/23 00:49:13;;;;;;;460.58;88.35;;;;;;;4.23;75.28;102395.16;5045468;28;20044;-69
2022/03/23 00:51:39;;;;;;;317.67;71.22;;;;;;;4.25;75.12;102396.09;5045376;28;20036;-68
2022/03/23 00:54:04;;;;;;;392.65;83.60;;;;;;;4.22;75.08;102391.69;5045530;28;20024;-69
2022/03/23 00:56:30;;;;;;;237.15;70.20;;;;;;;4.11;75.47;102385.13;5045462;28;20029;-69
2022/03/23 00:58:55;;;;;;;209.55;66.97;;;;;;;4.21;75.05;102383.91;5045442;28;20026;-69
2022/03/23 01:01:21;;;;;;;269.90;73.47;;;;;;;4.19;75.45;102390.66;5045380;28;20025;-69
2022/03/23 01:03:46;;;;;;;204.88;68.50;;;;;;;4.20;75.20;102387.31;5045488;28;20031;-69
2022/03/23 01:06:12;;;;;;;443.75;89.70;;;;;;;4.25;74.92;102390.09;5045236;28;20087;-69
2022/03/23 01:08:37;;;;;;;361.63;83.82;;;;;;;4.24;75.21;102385.75;5045182;28;20029;-69
2022/03/23 01:11:03;;;;;;;608.83;111.35;;;;;;;4.20;74.82;102385.59;5045168;28;20040;-69
2022/03/23 01:13:28;;;;;;;273.70;75.93;;;;;;;4.19;75.04;102386.41;5044986;28;20025;-69
2022/03/23 01:15:54;;;;;;;221.70;74.22;;;;;;;4.17;75.08;102382.88;5044820;28;20026;-68
2022/03/23 01:18:19;;;;;;;247.02;70.53;;;;;;;4.21;74.91;102389.06;5045014;28;20025;-68
2022/03/23 01:20:44;;;;;;;227.65;73.55;;;;;;;4.14;75.15;102384.44;5045018;28;20040;-68
2022/03/23 01:23:10;;;;;;;223.30;72.07;;;;;;;4.16;74.97;102386.25;5045061;28;20483;-69
2022/03/23 01:25:35;;;;;;;213.73;67.75;;;;;;;3.99;75.09;102358.81;5044291;28;20048;-68
2022/03/23 01:28:01;;;;;;;258.70;73.03;;;;;;;4.13;75.11;102385.22;5044814;28;20026;-68
2022/03/23 01:30:26;;;;;;;367.30;87.07;;;;;;;4.07;75.19;102383.22;5044930;28;20026;-69
2022/03/23 01:32:52;;;;;;;264.58;75.57;;;;;;;4.11;75.16;102382.56;5044448;28;20021;-68
2022/03/23 01:35:18;;;;;;;239.55;73.43;;;;;;;4.07;75.19;102378.94;5044740;28;20017;-68
2022/03/23 01:37:43;;;;;;;198.20;69.45;;;;;;;4.08;75.42;102379.84;5044783;28;20036;-68
2022/03/23 01:40:10;;;;;;;263.98;74.45;;;;;;;4.07;75.69;102378.09;5044587;28;20068;-68
2022/03/23 01:42:37;;;;;;;301.25;81.22;;;;;;;4.03;75.74;102376.16;5044539;28;20025;-68
2022/03/23 01:45:04;;;;;;;238.95;73.85;;;;;;;4.03;75.54;102374.47;5044668;28;20025;-70
2022/03/23 01:47:29;;;;;;;301.67;80.18;;;;;;;4.09;75.55;102372.19;5026224;28;20037;-69
2022/03/23 01:49:56;;;;;;;206.85;71.53;;;;;;;4.12;75.37;102376.59;5044322;28;20028;-69
2022/03/23 01:52:24;;;;;;;216.90;71.65;;;;;;;4.11;75.80;102384.25;5044295;28;20051;-70
2022/03/23 01:54:50;;;;;;;233.88;73.90;;;;;;;4.12;75.56;102368.03;5044407;28;20037;-69
2022/03/23 01:57:18;;;;;;;271.08;76.88;;;;;;;4.18;75.69;102374.38;5044326;28;20025;-69
2022/03/23 01:59:44;;;;;;;299.70;77.35;;;;;;;4.22;75.55;102372.81;5044150;28;20408;-69
2022/03/23 02:02:10;;;;;;;228.38;72.28;;;;;;;4.16;75.98;102373.41;5043880;28;20037;-69
2022/03/23 02:04:36;;;;;;;233.23;71.63;;;;;;;4.18;75.58;102366.66;5044110;28;20044;-69
2022/03/23 02:07:03;;;;;;;227.02;68.90;;;;;;;4.19;75.73;102370.09;5044001;28;20469;-69
2022/03/23 02:09:29;;;;;;;219.98;65.97;;;;;;;4.21;75.77;102365.91;5043794;28;20025;-69
2022/03/23 02:11:56;;;;;;;246.82;73.10;;;;;;;4.25;75.82;102364.38;5043719;28;20095;-69
2022/03/23 02:14:22;;;;;;;195.55;65.88;;;;;;;4.16;76.09;102364.78;5044298;28;20021;-69
2022/03/23 02:16:50;;;;;;;230.05;67.13;;;;;;;4.18;76.00;102373.47;5043665;28;20025;-69
2022/03/23 02:19:16;;;;;;;314.20;75.10;;;;;;;4.10;75.94;102362.81;5043940;28;20021;-69
2022/03/23 02:21:49;;;;;;;214.73;65.97;;;;;;;4.14;76.14;102375.00;5043662;28;20022;-69
2022/03/23 02:24:16;;;;;;;254.70;62.05;;;;;;;4.10;76.65;102357.69;5043804;28;20017;-69
2022/03/23 02:26:42;;;;;;;205.63;64.78;;;;;;;4.07;76.67;102367.81;5025947;28;20018;-69
2022/03/23 02:29:09;;;;;;;498.95;81.25;;;;;;;4.07;76.81;102372.94;5043759;28;20021;-69
2022/03/23 02:31:36;;;;;;;267.70;63.55;;;;;;;4.05;76.73;102361.69;5043462;28;20402;-69
2022/03/23 02:34:03;;;;;;;545.88;82.97;;;;;;;4.03;76.77;102365.88;5043647;28;20029;-69
2022/03/23 02:36:29;;;;;;;301.75;61.63;;;;;;;3.97;76.72;102362.22;5043733;28;20021;-69
2022/03/23 02:38:54;;;;;;;308.77;62.03;;;;;;;4.05;76.28;102369.41;5042774;28;20056;-69
2022/03/23 02:41:20;;;;;;;270.25;65.03;;;;;;;4.02;76.46;102367.56;5043408;28;20178;-69
2022/03/23 02:43:46;;;;;;;403.45;71.57;;;;;;;3.97;76.67;102363.88;5042583;28;20040;-69
2022/03/23 02:46:17;;;;;;;341.00;63.05;;;;;;;3.92;76.47;102366.22;5042564;28;20057;-69
2022/03/23 02:48:43;;;;;;;426.50;73.32;;;;;;;3.91;76.54;102361.91;5042517;28;20045;-68
2022/03/23 02:51:09;;;;;;;355.17;67.90;;;;;;;3.92;76.45;102357.63;5043334;28;20044;-69
2022/03/23 03:02:21;;;;;;;210.40;60.88;;;;;;;3.79;76.62;102361.25;5042831;28;20091;-69
2022/03/23 03:04:48;;;;;;;454.55;72.80;;;;;;;3.76;76.87;102358.50;5043311;28;20469;-69
2022/03/23 03:07:13;;;;;;;557.35;85.75;;;;;;;3.71;76.74;102363.41;5043002;28;20036;-69
2022/03/23 03:09:39;;;;;;;469.75;71.07;;;;;;;3.61;76.98;102351.78;5043211;28;20021;-68
2022/03/23 03:12:04;;;;;;;804.22;110.95;;;;;;;3.62;77.07;102355.25;5043058;28;20056;-68
2022/03/23 03:14:31;;;;;;;411.77;69.80;;;;;;;3.65;77.03;102360.53;5043233;28;20018;-68
2022/03/23 03:16:57;;;;;;;953.35;123.55;;;;;;;3.62;77.20;102355.25;5042952;28;20017;-68
2022/03/23 03:19:22;;;;;;;545.33;84.60;;;;;;;3.71;77.13;102364.31;5043167;28;20022;-68
2022/03/23 03:21:47;;;;;;;427.88;74.00;;;;;;;3.78;76.98;102356.91;5043302;28;20030;-70
2022/03/23 03:24:13;;;;;;;640.25;97.68;;;;;;;3.83;76.85;102360.63;5043174;28;20053;-69
2022/03/23 03:26:38;;;;;;;429.05;76.22;;;;;;;3.80;76.96;102363.03;5043131;28;20017;-69
2022/03/23 03:29:04;;;;;;;420.83;72.93;;;;;;;3.83;77.06;102360.63;5042196;28;20285;-69
2022/03/23 03:31:30;;;;;;;468.50;78.35;;;;;;;3.83;76.92;102352.91;5024591;28;20092;-69
2022/03/23 03:33:55;;;;;;;1226.13;153.77;;;;;;;3.91;77.04;102358.44;5043152;28;20244;-69
2022/03/23 03:36:21;;;;;;;429.40;76.20;;;;;;;3.82;77.22;102354.59;5043095;28;20033;-69
2022/03/23 03:38:47;;;;;;;628.92;90.78;;;;;;;3.93;76.82;102365.41;5043083;28;20022;-69
2022/03/23 03:41:12;;;;;;;511.35;85.85;;;;;;;3.94;76.90;102361.16;5042880;28;20060;-70
2022/03/23 03:43:39;;;;;;;339.70;69.05;;;;;;;3.93;76.76;102364.53;5042804;28;20021;-69
2022/03/23 03:46:08;;;;;;;502.02;81.07;;;;;;;3.93;76.98;102362.84;5024934;28;20018;-69
2022/03/23 03:48:34;;;;;;;483.42;75.57;;;;;;;3.87;76.94;102377.06;5043239;28;20029;-69
2022/03/23 03:51:00;;;;;;;364.88;62.95;;;;;;;3.72;77.63;102378.91;5046708;28;20033;-69
2022/03/23 03:53:26;;;;;;;262.63;63.72;;;;;;;3.74;77.62;102368.72;5046622;28;20035;-69
2022/03/23 03:55:51;;;;;;;371.77;69.65;;;;;;;3.72;78.27;102362.63;5046793;28;20033;-69
2022/03/23 03:58:17;;;;;;;623.47;93.97;;;;;;;3.69;78.46;102360.78;5046672;28;20029;-69
2022/03/23 04:00:43;;;;;;;412.33;76.38;;;;;;;3.72;78.62;102365.22;5046314;28;20025;-69
2022/03/23 04:03:08;;;;;;;495.27;81.35;;;;;;;3.74;79.21;102371.28;5046467;28;20022;-69
2022/03/23 04:05:34;;;;;;;502.52;82.72;;;;;;;3.74;78.71;102368.72;5046366;28;20060;-69
2022/03/23 04:07:59;;;;;;;357.27;69.63;;;;;;;3.80;78.53;102360.47;5046304;28;20036;-69
2022/03/23 04:10:26;;;;;;;344.58;69.22;;;;;;;3.87;78.14;102359.06;5046420;28;20021;-69
2022/03/23 04:12:52;;;;;;;359.15;73.97;;;;;;;3.85;78.69;102353.84;5046264;28;20021;-68
2022/03/23 04:15:19;;;;;;;410.77;72.97;;;;;;;3.88;78.63;102364.31;5046312;28;20029;-68
2022/03/23 04:17:45;;;;;;;271.73;64.93;;;;;;;3.89;78.91;102360.03;5045995;28;20037;-68
2022/03/23 04:20:11;;;;;;;473.17;76.55;;;;;;;3.91;78.55;102356.75;5046092;28;20029;-69
2022/03/23 04:22:38;;;;;;;299.67;68.75;;;;;;;3.95;78.26;102362.91;5046019;28;20040;-68
2022/03/23 04:25:05;;;;;;;495.63;79.95;;;;;;;4.02;77.89;102362.44;5046066;28;20079;-69
2022/03/23 04:27:31;;;;;;;294.75;64.70;;;;;;;3.97;78.07;102358.75;5046312;28;20020;-68
2022/03/23 04:29:56;;;;;;;446.40;77.45;;;;;;;3.92;78.52;102366.22;5046042;28;20022;-69
2022/03/23 04:32:21;;;;;;;380.52;68.13;;;;;;;3.95;78.24;102363.81;5045876;28;20049;-69
2022/03/23 04:34:47;;;;;;;301.02;65.82;;;;;;;4.00;78.04;102355.44;5045834;28;20049;-70
2022/03/23 04:37:12;;;;;;;1250.80;163.25;;;;;;;3.99;78.20;102361.38;5045804;28;20694;-69
2022/03/23 04:39:37;;;;;;;1161.10;145.55;;;;;;;4.05;77.82;102359.13;5045430;28;20045;-68
2022/03/23 04:42:03;;;;;;;766.95;107.55;;;;;;;4.07;77.76;102360.09;5045584;28;20171;-68
2022/03/23 04:44:28;;;;;;;420.95;74.38;;;;;;;4.01;78.11;102349.50;5045883;28;20224;-69
2022/03/23 04:46:54;;;;;;;493.52;75.97;;;;;;;3.96;77.94;102347.56;5045382;28;20136;-68
2022/03/23 04:49:19;;;;;;;424.15;74.07;;;;;;;4.05;77.90;102356.56;5045679;28;20349;-68
2022/03/23 04:51:44;;;;;;;638.78;89.13;;;;;;;4.05;78.05;102356.56;5045591;28;20075;-68
2022/03/23 04:54:10;;;;;;;522.35;87.72;;;;;;;3.90;78.39;102346.41;5027522;28;20488;-68
2022/03/23 04:56:35;;;;;;;583.50;83.95;;;;;;;3.95;78.08;102353.53;5045516;28;20028;-68
2022/03/23 04:59:01;;;;;;;719.58;101.45;;;;;;;3.85;78.47;102346.13;5045366;28;20025;-69
2022/03/23 05:01:26;;;;;;;312.02;61.08;;;;;;;3.83;78.50;102355.47;5044273;28;20025;-68
2022/03/23 05:03:52;;;;;;;426.92;65.65;;;;;;;3.75;78.73;102352.53;5045042;28;20021;-68
2022/03/23 05:06:18;;;;;;;553.13;73.03;;;;;;;3.73;78.77;102359.25;5045185;28;20030;-69
2022/03/23 05:08:44;;;;;;;567.88;82.72;;;;;;;3.68;79.06;102356.44;5045311;28;20017;-68
2022/03/23 05:11:09;;;;;;;498.15;75.45;;;;;;;3.75;78.64;102360.22;5044973;28;20173;-69
2022/03/23 05:13:34;;;;;;;412.98;68.22;;;;;;;3.69;78.51;102349.63;5044667;28;20052;-70
2022/03/23 05:16:00;;;;;;;475.88;70.18;;;;;;;3.75;78.25;102357.66;5044769;28;20022;-70
2022/03/23 05:18:26;;;;;;;540.15;72.95;;;;;;;3.71;78.65;102359.19;5045110;28;20045;-70
2022/03/23 05:20:51;;;;;;;437.40;69.13;;;;;;;3.70;78.75;102365.13;5044790;28;20048;-70
2022/03/23 05:23:16;;;;;;;464.08;64.78;;;;;;;3.66;78.75;102357.19;5044812;28;20048;-69
2022/03/23 05:25:42;;;;;;;443.30;70.60;;;;;;;3.56;78.84;102356.69;5045107;28;20025;-70
2022/03/23 05:28:10;;;;;;;480.92;69.90;;;;;;;3.53;79.04;102361.66;5044646;28;20072;-69
2022/03/23 05:30:36;;;;;;;538.35;77.20;;;;;;;3.53;79.34;102363.38;5044866;28;20513;-70
2022/03/23 05:33:03;;;;;;;761.92;93.97;;;;;;;3.56;79.09;102360.97;5026497;28;20029;-70
2022/03/23 05:35:28;;;;;;;566.08;76.38;;;;;;;3.58;78.81;102356.75;5044737;28;20048;-71
2022/03/23 05:37:54;;;;;;;1067.78;121.70;;;;;;;3.54;79.08;102347.13;5044561;28;20025;-73
2022/03/23 05:40:23;;;;;;;324.02;61.60;;;;;;;3.55;78.61;102354.94;5026226;28;20045;-71
2022/03/23 05:42:49;;;;;;;425.88;66.15;;;;;;;3.63;78.80;102364.69;5044235;28;20036;-71
2022/03/23 05:45:15;;;;;;;423.85;66.97;;;;;;;3.66;78.61;102362.31;5043521;28;20029;-69
2022/03/23 05:47:40;;;;;;;250.68;55.78;;;;;;;3.71;78.88;102361.75;5025100;28;20034;-70
2022/03/23 05:50:08;;;;;;;282.35;58.30;;;;;;;3.78;78.56;102367.19;5044026;28;20076;-70
2022/03/23 05:52:34;;;;;;;699.80;99.32;;;;;;;3.77;78.48;102362.88;5043975;28;20029;-70
2022/03/23 05:55:01;;;;;;;560.03;80.22;;;;;;;3.67;78.34;102358.94;5044404;28;20025;-69
2022/03/23 05:57:26;;;;;;;235.20;53.20;;;;;;;3.60;78.27;102360.28;5044493;28;20409;-70
2022/03/23 05:59:52;;;;;;;520.67;70.88;;;;;;;3.55;78.81;102362.63;5044146;28;20064;-70
2022/03/23 06:02:17;;;;;;;528.65;72.35;;;;;;;3.49;78.75;102366.56;5043906;28;20032;-70
2022/03/23 06:04:42;;;;;;;832.97;110.93;;;;;;;3.39;79.01;102363.50;5044085;28;20077;-69
2022/03/23 06:07:08;;;;;;;281.48;55.35;;;;;;;3.42;78.81;102363.66;5044309;28;20053;-69
2022/03/23 06:09:33;;;;;;;272.48;50.55;;;;;;;3.47;78.86;102377.63;5044104;28;20022;-69
2022/03/23 06:12:00;;;;;;;365.70;59.40;;;;;;;3.53;79.01;102376.22;5043787;28;20029;-69
2022/03/23 06:14:26;;;;;;;507.58;74.72;;;;;;;3.53;79.41;102371.06;5043813;28;20521;-69
2022/03/23 06:16:52;;;;;;;859.20;109.75;;;;;;;3.63;79.44;102375.88;5043712;28;20036;-70
2022/03/23 06:19:17;;;;;;;385.70;60.15;;;;;;;3.70;79.27;102379.66;5043776;28;20172;-69
2022/03/23 06:21:42;;;;;;;437.10;65.15;;;;;;;3.66;78.82;102367.47;5043550;28;20030;-69
2022/03/23 06:24:08;;;;;;;601.45;78.70;;;;;;;3.69;78.83;102380.47;5043608;28;20021;-69
2022/03/23 06:26:34;;;;;;;238.70;54.55;;;;;;;3.67;79.13;102379.50;5043894;28;20033;-69
2022/03/23 06:28:59;;;;;;;218.85;50.30;;;;;;;3.80;79.05;102387.00;5043671;28;20026;-70
2022/03/23 06:31:24;;;;;;;235.88;48.65;;;;;;;3.85;79.09;102392.38;5043236;28;20029;-69
2022/03/23 06:33:50;;;;;;;197.93;46.47;;;;;;;3.90;79.16;102393.53;5043474;28;20025;-70
2022/03/23 06:36:15;;;;;;;169.68;46.72;;;;;;;3.97;79.08;102397.28;5043520;28;20022;-69
2022/03/23 06:38:41;;;;;;;147.88;43.95;;;;;;;3.97;79.18;102389.59;5043310;28;20032;-69
2022/03/23 06:41:07;;;;;;;216.02;45.40;;;;;;;4.05;79.22;102392.53;5043077;28;20045;-70
2022/03/23 06:43:33;;;;;;;147.13;45.70;;;;;;;4.13;79.11;102395.50;5043222;28;20029;-69
2022/03/23 06:45:58;;;;;;;363.77;63.95;;;;;;;4.13;78.90;102404.09;5043066;28;20535;-70
2022/03/23 06:48:23;;;;;;;404.05;64.05;;;;;;;4.03;78.60;102399.28;5043477;28;20074;-69
2022/03/23 06:50:49;;;;;;;133.70;46.60;;;;;;;3.93;78.83;102398.81;5043399;28;20025;-69
2022/03/23 06:53:14;;;;;;;135.15;44.70;;;;;;;4.01;79.18;102411.19;5043183;28;20021;-69
2022/03/23 06:55:39;;;;;;;122.72;40.42;;;;;;;4.11;78.95;102403.13;5043234;28;20446;-70
2022/03/23 06:58:05;;;;;;;119.10;41.80;;;;;;;4.08;79.00;102396.16;5043404;28;20022;-70
2022/03/23 07:00:31;;;;;;;103.13;41.63;;;;;;;4.10;78.73;102391.09;5043309;28;20018;-70
2022/03/23 07:02:57;;;;;;;115.43;39.33;;;;;;;4.20;78.76;102393.31;5042516;28;20017;-70
2022/03/23 07:05:22;;;;;;;112.32;39.97;;;;;;;4.31;78.95;102405.84;5042401;28;20032;-71
2022/03/23 07:10:34;;;;;;;187.18;47.65;;;;;;;4.48;78.94;102404.09;5042531;28;20060;-70
2022/03/23 07:12:59;;;;;;;367.00;57.63;;;;;;;4.45;78.63;102403.94;5042293;28;20029;-70
2022/03/23 07:15:25;;;;;;;592.78;79.40;;;;;;;4.47;78.37;102412.63;5042560;28;20051;-71
2022/03/23 07:17:50;;;;;;;111.07;40.55;;;;;;;4.43;78.57;102414.16;5042244;28;20022;-71
2022/03/23 07:20:16;;;;;;;114.38;40.78;;;;;;;4.47;78.31;102416.06;5042414;28;20069;-71
2022/03/23 07:22:41;;;;;;;110.38;41.90;;;;;;;4.43;78.15;102409.00;5042527;28;20017;-71
2022/03/23 07:25:07;;;;;;;110.30;43.80;;;;;;;4.47;78.38;102410.06;5045537;28;20512;-71
2022/03/23 07:27:33;;;;;;;125.65;44.47;;;;;;;4.56;78.30;102414.75;5045477;28;20437;-71
2022/03/23 07:29:58;;;;;;;128.60;43.92;;;;;;;4.61;78.08;102417.53;5045570;28;20017;-71
2022/03/23 07:32:24;;;;;;;117.43;43.85;;;;;;;4.65;77.99;102420.34;5046072;28;20056;-70
2022/03/23 07:34:49;;;;;;;119.63;41.60;;;;;;;4.73;78.12;102420.72;5046282;28;20033;-71
2022/03/23 07:37:15;;;;;;;114.43;40.42;;;;;;;4.74;77.78;102422.50;5046453;28;20029;-70
2022/03/23 07:39:40;;;;;;;95.80;39.40;;;;;;;4.73;77.52;102417.28;5046191;28;20124;-70
2022/03/23 07:42:06;;;;;;;97.85;39.47;;;;;;;4.75;77.56;102413.97;5046520;28;20032;-71
2022/03/23 07:44:34;;;;;;;92.05;40.22;;;;;;;4.85;77.82;102417.88;5046419;28;20531;-70
2022/03/23 07:47:01;;;;;;;98.63;38.25;;;;;;;4.90;77.43;102416.41;5045877;28;20021;-70
2022/03/23 07:49:26;;;;;;;96.78;41.53;;;;;;;4.92;77.53;102409.59;5046338;28;20086;-70
2022/03/23 07:51:52;;;;;;;87.60;37.28;;;;;;;5.13;77.54;102414.00;5028421;28;20022;-71
2022/03/23 07:54:17;;;;;;;89.03;37.70;;;;;;;5.32;78.19;102417.44;5046211;28;20025;-71
2022/03/23 07:56:43;;;;;;;92.20;36.25;;;;;;;5.55;77.78;102399.56;5046092;28;20086;-71
2022/03/23 07:59:08;;;;;;;89.95;37.60;;;;;;;5.62;78.17;102401.63;5046130;28;20025;-71
2022/03/23 08:01:34;;;;;;;81.82;35.67;;;;;;;5.86;77.55;102411.25;5045881;28;20021;-70
2022/03/23 08:04:00;;;;;;;78.40;35.08;;;;;;;6.03;76.98;102400.75;5045722;28;20076;-69
2022/03/23 08:06:26;;;;;;;81.80;36.80;;;;;;;6.15;76.80;102406.47;5045868;28;20030;-70
2022/03/23 08:08:52;;;;;;;77.05;34.25;;;;;;;6.19;77.20;102400.63;5045798;28;20045;-71
2022/03/23 08:11:18;;;;;;;84.53;36.95;;;;;;;6.46;76.22;102414.59;5045783;28;20052;-70
2022/03/23 08:13:43;;;;;;;76.85;32.88;;;;;;;6.57;75.70;102415.03;5045829;28;20030;-69
2022/03/23 08:16:09;;;;;;;72.88;34.72;;;;;;;6.52;74.56;102413.97;5045515;28;20025;-70
2022/03/23 08:18:35;;;;;;;88.13;34.85;;;;;;;6.57;74.37;102408.19;5045765;28;20036;-69
2022/03/23 08:21:01;;;;;;;77.82;34.05;;;;;;;6.74;74.42;102413.13;5045558;28;20380;-69
2022/03/23 08:23:26;;;;;;;80.63;35.70;;;;;;;6.85;74.23;102416.19;5045450;28;20089;-70
2022/03/23 08:25:52;;;;;;;77.60;35.22;;;;;;;7.07;73.92;102419.59;5045635;28;20025;-69
2022/03/23 08:28:17;;;;;;;72.35;34.30;;;;;;;7.32;73.61;102415.34;5045478;28;20029;-69
2022/03/23 08:30:44;;;;;;;70.60;33.85;;;;;;;7.69;73.11;102419.31;5027580;28;20025;-69
2022/03/23 08:33:10;;;;;;;72.65;34.90;;;;;;;8.07;72.02;102428.34;5045119;28;20040;-69
2022/03/23 08:35:36;;;;;;;72.00;33.05;;;;;;;8.34;70.99;102417.19;5026159;28;20021;-70
2022/03/23 08:38:02;;;;;;;76.07;34.40;;;;;;;8.45;68.75;102414.94;5045374;28;20029;-69
2022/03/23 08:40:29;;;;;;;79.90;35.03;;;;;;;8.34;67.26;102413.72;5044723;28;20065;-69
2022/03/23 08:42:55;;;;;;;72.97;35.78;;;;;;;8.48;68.26;102415.03;5026643;28;20021;-69
2022/03/23 08:45:21;;;;;;;69.00;35.67;;;;;;;8.85;68.30;102415.38;5044573;28;20045;-69
2022/03/23 08:47:49;;;;;;;66.05;33.30;;;;;;;9.13;67.78;102404.97;5044358;28;20017;-69
2022/03/23 08:50:15;;;;;;;68.47;35.35;;;;;;;9.48;67.35;102407.72;5045137;28;20453;-70
2022/03/23 08:52:44;;;;;;;73.55;34.92;;;;;;;9.89;66.65;102409.69;5044907;28;20061;-69
2022/03/23 08:55:19;;;;;;;62.30;32.72;;;;;;;10.22;65.69;102407.06;5045049;28;20028;-69
2022/03/23 08:57:46;;;;;;;63.40;31.00;;;;;;;10.70;65.31;102410.00;5044834;28;20025;-69
2022/03/23 09:00:12;;;;;;;61.35;32.40;;;;;;;11.70;63.99;102407.75;5044813;28;20112;-69
2022/03/23 09:02:38;;;;;;;67.68;32.35;;;;;;;12.79;60.33;102395.69;5044518;28;20025;-69
2022/03/23 09:05:05;;;;;;;69.78;32.10;;;;;;;14.00;57.99;102400.59;5026944;28;20040;-68
2022/03/23 09:07:32;;;;;;;62.22;33.22;;;;;;;15.01;55.96;102399.59;5044771;28;20033;-69
2022/03/23 09:09:57;;;;;;;57.53;33.13;;;;;;;15.79;53.63;102405.97;5044890;28;20025;-68
2022/03/23 09:12:23;;;;;;;58.08;31.73;;;;;;;15.78;52.25;102403.34;5044736;28;20095;-68
2022/03/23 09:14:48;;;;;;;61.13;33.08;;;;;;;15.40;51.82;102405.84;5044949;28;20025;-69
2022/03/23 09:17:14;;;;;;;57.72;34.55;;;;;;;15.81;51.22;102408.59;5044485;28;20521;-68
2022/03/23 09:19:39;;;;;;;55.85;31.65;;;;;;;16.42;49.60;102406.03;5044771;28;20021;-68
2022/03/23 09:22:05;;;;;;;55.92;31.75;;;;;;;17.00;48.28;102398.88;5044559;28;20401;-68
2022/03/23 09:24:30;;;;;;;47.97;30.80;;;;;;;17.48;46.33;102408.34;5044415;28;20064;-68
2022/03/23 09:26:56;;;;;;;51.47;30.85;;;;;;;17.78;44.81;102395.88;5044382;28;20025;-68
2022/03/23 09:29:22;;;;;;;55.35;30.70;;;;;;;18.14;44.16;102406.19;5044369;28;20088;-68
2022/03/23 09:31:48;;;;;;;43.88;28.02;;;;;;;18.46;42.34;102409.41;5044205;28;20056;-68
2022/03/23 09:34:14;;;;;;;48.63;28.65;;;;;;;18.67;40.88;102410.06;5044091;28;20034;-68
2022/03/23 09:39:23;;;;;;;43.40;27.33;;;;;;;19.07;38.90;102411.38;5043889;28;20188;-68
2022/03/23 09:41:49;;;;;;;44.65;26.92;;;;;;;19.21;38.08;102400.72;5044095;28;20085;-68
2022/03/23 09:44:15;;;;;;;43.08;28.25;;;;;;;19.34;38.58;102400.53;5026113;28;20111;-68
2022/03/23 09:46:41;;;;;;;41.03;28.10;;;;;;;19.43;37.73;102405.69;5025358;28;20025;-70
2022/03/23 09:49:07;;;;;;;44.47;28.10;;;;;;;19.52;37.07;102412.59;5044208;28;20093;-70
2022/03/23 09:51:35;;;;;;;48.08;28.55;;;;;;;19.75;36.19;102411.38;5044025;28;20487;-69
2022/03/23 09:54:01;;;;;;;46.67;30.02;;;;;;;20.02;35.45;102414.47;5043831;28;20389;-70
2022/03/23 09:56:27;;;;;;;48.47;28.33;;;;;;;20.15;34.58;102410.78;5043731;28;20030;-69
2022/03/23 09:58:52;;;;;;;42.33;27.65;;;;;;;20.47;34.77;102411.09;5043423;28;20025;-70
2022/03/23 10:01:47;;;;;;;46.70;28.98;;;;;;;20.55;33.49;102410.97;5043336;28;20037;-68
2022/03/23 10:04:12;;;;;;;46.47;27.58;;;;;;;20.84;33.11;102404.25;5043427;28;20056;-69
2022/03/23 10:07:11;;;;;;;41.70;27.23;;;;;;;20.94;32.81;102402.34;5043804;28;20040;-69
2022/03/23 10:10:04;;;;;;;40.92;27.30;;;;;;;21.40;32.60;102400.47;5043634;28;20029;-69
2022/03/23 10:12:52;;;;;;;44.67;28.35;;;;;;;21.66;32.32;102403.44;5043451;28;20025;-69
2022/03/23 10:16:03;;;;;;;41.88;28.58;;;;;;;22.19;31.94;102396.00;5043374;28;20059;-69
2022/03/23 10:18:43;;;;;;;43.03;28.23;;;;;;;22.26;30.28;102393.16;5027507;28;20041;-68
2022/03/23 10:21:08;;;;;;;45.83;29.25;;;;;;;22.53;30.43;102392.44;5043406;28;20036;-69
2022/03/23 10:23:34;;;;;;;42.28;27.67;;;;;;;22.38;30.24;102391.09;5043262;28;20026;-68
2022/03/23 10:26:19;;;;;;;42.08;26.90;;;;;;;22.36;30.51;102391.16;5043415;28;20427;-68
2022/03/23 10:28:45;;;;;;;37.92;26.63;;;;;;;22.58;29.66;102392.31;5042877;28;20083;-68
2022/03/23 10:31:19;;;;;;;38.50;25.40;;;;;;;22.53;29.41;102401.25;5043183;28;20059;-69
2022/03/23 10:34:08;;;;;;;36.55;26.15;;;;;;;22.36;28.60;102392.91;5043236;28;20056;-69
2022/03/23 10:36:50;;;;;;;39.30;25.13;;;;;;;22.54;29.10;102394.16;5043126;28;20029;-68
2022/03/23 10:39:16;;;;;;;38.35;26.80;;;;;;;22.51;28.89;102395.13;5043126;28;20028;-69
2022/03/23 10:41:42;;;;;;;40.35;26.67;;;;;;;22.37;28.99;102389.34;5043133;28;20025;-69
2022/03/23 10:44:17;;;;;;;44.10;26.05;;;;;;;22.15;28.78;102392.56;5043121;28;20055;-69
2022/03/23 10:46:43;;;;;;;36.15;25.73;;;;;;;22.31;28.76;102400.09;5042855;28;20055;-69
2022/03/23 10:49:11;;;;;;;38.95;25.95;;;;;;;22.10;28.17;102391.81;5043064;28;20095;-69
2022/03/23 10:51:37;;;;;;;37.33;25.48;;;;;;;21.77;28.46;102398.75;5042916;28;20077;-69
2022/03/23 10:54:18;;;;;;;36.95;24.17;;;;;;;21.72;28.70;102392.72;5042838;28;20029;-69
2022/03/23 10:56:43;;;;;;;39.13;25.05;;;;;;;21.90;27.97;102390.56;5042969;28;20029;-70
2022/03/23 10:59:26;;;;;;;40.65;24.00;;;;;;;21.54;27.96;102392.22;5041871;28;20022;-68
2022/03/23 11:02:03;;;;;;;35.05;22.48;;;;;;;21.05;28.30;102396.84;5042567;28;20511;-68
2022/03/23 11:04:46;;;;;;;36.63;23.33;;;;;;;20.60;29.06;102405.59;5042762;28;20037;-68
2022/03/23 11:07:31;;;;;;;40.30;24.55;;;;;;;20.60;29.67;102395.03;5042572;28;20053;-69
2022/03/23 11:15:47;;;;;;;33.80;22.88;;;;;;;21.14;28.45;102379.91;5042714;28;20049;-69
2022/03/23 11:18:13;;;;;;;30.63;21.48;;;;;;;21.37;28.45;102376.78;5042713;28;20079;-69
2022/03/23 11:20:47;;;;;;;37.42;23.88;;;;;;;21.91;27.89;102373.78;5042999;28;20032;-69
2022/03/23 11:23:23;;;;;;;39.17;23.75;;;;;;;22.27;27.58;102379.00;5042406;28;20037;-70
2022/03/23 11:25:49;;;;;;;34.65;23.70;;;;;;;22.38;26.43;102376.06;5042724;28;20026;-70
2022/03/23 11:28:15;;;;;;;37.45;22.02;;;;;;;22.35;26.99;102370.88;5041475;28;20416;-70